createdAt,value
2018-12-04T00:01:32.124Z,63.07
2018-12-04T00:03:58.199Z,63.20
2018-12-04T00:06:24.212Z,65.15
2018-12-04T00:08:50.185Z,64.19
2018-12-04T00:11:16.244Z,63.23
2018-12-04T00:13:42.206Z,63.55
2018-12-04T00:16:08.201Z,64.61
2018-12-04T00:18:34.224Z,64.93
2018-12-04T00:21:00.178Z,64.75
2018-12-04T00:23:26.215Z,63.44
2018-12-04T00:25:52.212Z,63.88
2018-12-04T00:28:18.287Z,63.06
2018-12-04T00:30:44.352Z,64.07
2018-12-04T00:33:10.350Z,64.38
2018-12-04T00:35:36.307Z,64.12
2018-12-04T00:38:05.459Z,64.31
2018-12-04T00:40:31.559Z,64.09
2018-12-04T00:42:57.572Z,63.87
2018-12-04T00:45:23.535Z,63.62
2018-12-04T00:47:49.540Z,62.49
2018-12-04T00:50:15.509Z,63.08
2018-12-04T00:52:41.568Z,65.42
2018-12-04T00:55:07.540Z,64.43
2018-12-04T00:57:33.604Z,65.27
2018-12-04T00:59:59.651Z,64.47
2018-12-04T01:02:25.748Z,65.01
2018-12-04T01:04:51.738Z,65.54
2018-12-04T01:07:17.698Z,65.13
2018-12-04T01:09:43.753Z,64.00
2018-12-04T01:12:09.721Z,64.11
2018-12-04T01:14:35.720Z,63.13
2018-12-04T01:17:01.708Z,63.85
2018-12-04T01:19:27.731Z,63.62
2018-12-04T01:21:53.697Z,64.41
2018-12-04T01:24:19.694Z,63.63
2018-12-04T01:26:45.702Z,63.00
2018-12-04T01:29:11.693Z,62.51
2018-12-04T01:31:37.668Z,62.28
2018-12-04T01:34:03.677Z,61.86
2018-12-04T01:36:32.258Z,63.37
2018-12-04T01:38:58.342Z,63.72
2018-12-04T01:41:24.311Z,63.85
2018-12-04T01:43:50.301Z,64.03
2018-12-04T01:46:16.258Z,63.40
2018-12-04T01:48:42.265Z,63.83
2018-12-04T01:51:08.465Z,63.22
2018-12-04T01:53:34.415Z,62.20
2018-12-04T01:56:00.437Z,62.73
2018-12-04T01:58:26.483Z,63.64
2018-12-04T02:00:52.477Z,63.41
2018-12-04T02:03:18.458Z,63.06
2018-12-04T02:05:44.462Z,63.65
2018-12-04T02:08:10.442Z,62.77
2018-12-04T02:10:36.496Z,63.75
2018-12-04T02:13:02.480Z,63.09
2018-12-04T02:15:29.142Z,63.37
2018-12-04T02:17:55.209Z,62.96
2018-12-04T02:20:21.190Z,63.17
2018-12-04T02:22:47.144Z,64.31
2018-12-04T02:25:13.123Z,65.06
2018-12-04T02:27:39.187Z,63.98
2018-12-04T02:30:05.136Z,64.13
2018-12-04T02:32:31.151Z,64.61
2018-12-04T02:34:57.111Z,63.11
2018-12-04T02:37:23.123Z,64.41
2018-12-04T02:39:49.091Z,65.45
2018-12-04T02:42:17.119Z,64.46
2018-12-04T02:44:43.068Z,63.68
2018-12-04T02:47:09.094Z,63.97
2018-12-04T02:49:35.126Z,64.24
2018-12-04T02:52:01.118Z,63.50
2018-12-04T02:54:27.122Z,63.22
2018-12-04T02:56:53.096Z,63.61
2018-12-04T02:59:19.093Z,63.49
2018-12-04T03:01:45.055Z,64.08
2018-12-04T03:04:11.076Z,63.94
2018-12-04T03:06:37.041Z,63.24
2018-12-04T03:09:04.933Z,64.12
2018-12-04T03:11:30.897Z,62.73
2018-12-04T03:13:56.896Z,63.83
2018-12-04T03:16:22.902Z,63.87
2018-12-04T03:18:48.990Z,62.64
2018-12-04T03:21:14.961Z,62.46
2018-12-04T03:23:41.579Z,64.56
2018-12-04T03:26:07.642Z,64.92
2018-12-04T03:28:33.613Z,62.86
2018-12-04T03:30:59.619Z,63.90
2018-12-04T03:33:35.291Z,61.90
2018-12-04T03:36:01.344Z,63.15
2018-12-04T03:38:27.304Z,63.87
2018-12-04T03:40:53.306Z,63.52
2018-12-04T03:43:19.268Z,63.87
2018-12-04T03:45:45.245Z,61.39
2018-12-04T03:48:11.198Z,64.06
2018-12-04T03:50:37.228Z,63.27
2018-12-04T03:53:03.229Z,62.31
2018-12-04T03:55:29.221Z,62.19
2018-12-04T03:57:55.293Z,62.07
2018-12-04T04:00:21.253Z,62.71
2018-12-04T04:02:47.240Z,62.24
2018-12-04T04:05:13.203Z,61.14
2018-12-04T04:07:39.210Z,62.48
2018-12-04T04:10:05.185Z,62.46
2018-12-04T04:12:31.175Z,62.49
2018-12-04T04:14:57.146Z,62.58
2018-12-04T04:17:23.140Z,61.98
2018-12-04T04:19:49.108Z,62.48
2018-12-04T04:22:15.110Z,61.78
2018-12-04T04:24:41.105Z,61.33
2018-12-04T04:27:07.105Z,62.64
2018-12-04T04:29:33.082Z,62.10
2018-12-04T04:31:59.117Z,62.03
2018-12-04T04:34:25.082Z,60.97
2018-12-04T04:36:51.070Z,59.88
2018-12-04T04:39:17.078Z,61.61
2018-12-04T04:41:43.061Z,61.67
2018-12-04T04:44:09.068Z,60.66
2018-12-04T04:46:35.099Z,61.15
2018-12-04T04:49:01.685Z,61.18
2018-12-04T04:51:27.743Z,61.61
2018-12-04T04:53:53.760Z,60.53
2018-12-04T04:56:19.735Z,60.25
2018-12-04T04:58:45.795Z,61.92
2018-12-04T05:01:11.889Z,60.81
2018-12-04T05:03:37.939Z,61.35
2018-12-04T05:06:04.413Z,61.13
2018-12-04T05:08:30.442Z,61.40
2018-12-04T05:10:56.428Z,61.57
2018-12-04T05:13:22.415Z,62.33
2018-12-04T05:15:48.501Z,61.54
2018-12-04T05:18:14.478Z,61.23
2018-12-04T05:20:40.498Z,61.97
2018-12-04T05:23:06.483Z,61.52
2018-12-04T05:25:32.468Z,61.49
2018-12-04T05:27:58.452Z,61.52
2018-12-04T05:30:24.462Z,60.56
2018-12-04T05:32:50.424Z,61.34
2018-12-04T05:35:16.407Z,61.22
2018-12-04T05:37:42.393Z,61.14
2018-12-04T05:40:08.392Z,62.08
2018-12-04T05:42:34.524Z,60.79
2018-12-04T05:45:00.528Z,60.99
2018-12-04T05:47:26.481Z,60.65
2018-12-04T05:49:52.515Z,61.41
2018-12-04T05:52:18.466Z,60.72
2018-12-04T05:54:44.432Z,60.88
2018-12-04T05:57:10.484Z,60.19
2018-12-04T05:59:36.444Z,60.61
2018-12-04T06:02:02.442Z,60.98
2018-12-04T06:04:28.396Z,61.45
2018-12-04T06:06:54.396Z,61.16
2018-12-04T06:09:20.484Z,60.23
2018-12-04T06:11:46.730Z,60.53
2018-12-04T06:14:12.682Z,59.73
2018-12-04T06:16:38.717Z,60.33
2018-12-04T06:19:04.746Z,59.53
2018-12-04T06:21:30.718Z,61.24
2018-12-04T06:23:56.710Z,60.35
2018-12-04T06:26:22.682Z,59.74
2018-12-04T06:28:48.692Z,60.17
2018-12-04T06:31:14.716Z,60.47
2018-12-04T06:33:40.716Z,59.83
2018-12-04T06:36:06.716Z,60.62
2018-12-04T06:38:32.686Z,60.27
2018-12-04T06:40:58.688Z,60.63
2018-12-04T06:43:24.771Z,59.90
2018-12-04T06:45:50.780Z,60.36
2018-12-04T06:48:16.746Z,61.97
2018-12-04T06:50:42.755Z,61.04
2018-12-04T06:53:08.783Z,60.72
2018-12-04T06:55:34.770Z,60.04
2018-12-04T06:58:00.797Z,60.52
2018-12-04T07:00:26.819Z,60.82
2018-12-04T07:02:52.776Z,60.35
2018-12-04T07:05:25.624Z,60.67
2018-12-04T07:07:51.732Z,59.97
2018-12-04T07:10:17.799Z,59.65
2018-12-04T07:12:43.782Z,60.34
2018-12-04T07:15:09.805Z,58.95
2018-12-04T07:17:35.795Z,60.84
2018-12-04T07:20:01.790Z,59.88
2018-12-04T07:22:27.767Z,59.24
2018-12-04T07:24:53.762Z,59.92
2018-12-04T07:27:19.764Z,60.59
2018-12-04T07:29:45.789Z,61.22
2018-12-04T07:32:11.857Z,61.09
2018-12-04T07:34:37.872Z,60.50
2018-12-04T07:37:03.873Z,59.61
2018-12-04T07:39:29.833Z,59.92
2018-12-04T07:41:55.838Z,60.63
2018-12-04T07:44:21.806Z,60.13
2018-12-04T07:46:48.414Z,60.10
2018-12-04T07:49:14.388Z,60.33
2018-12-04T07:51:40.393Z,60.86
2018-12-04T07:54:06.350Z,58.34
2018-12-04T07:56:32.344Z,60.52
2018-12-04T07:58:58.309Z,60.68
2018-12-04T08:01:24.324Z,60.17
2018-12-04T08:03:50.284Z,60.75
2018-12-04T08:06:16.319Z,60.28
2018-12-04T08:08:42.284Z,59.75
2018-12-04T08:11:08.309Z,60.37
2018-12-04T08:13:34.272Z,59.80
2018-12-04T08:16:00.276Z,59.99
2018-12-04T08:18:26.248Z,59.19
2018-12-04T08:20:52.324Z,59.88
2018-12-04T08:23:18.288Z,59.15
2018-12-04T08:25:44.350Z,59.06
2018-12-04T08:28:10.316Z,58.64
2018-12-04T08:30:36.312Z,58.93
2018-12-04T08:33:02.261Z,58.96
2018-12-04T08:35:28.342Z,59.00
2018-12-04T08:37:54.298Z,58.52
2018-12-04T08:40:20.297Z,59.12
2018-12-04T08:42:46.294Z,58.90
2018-12-04T08:45:12.261Z,58.82
2018-12-04T08:47:41.205Z,58.76
2018-12-04T08:50:07.321Z,59.15
2018-12-04T08:52:33.305Z,59.40
2018-12-04T08:54:59.373Z,58.68
2018-12-04T08:57:25.433Z,57.81
2018-12-04T08:59:51.537Z,57.68
2018-12-04T09:02:17.504Z,59.02
2018-12-04T09:04:43.465Z,56.95
2018-12-04T09:07:09.877Z,56.82
2018-12-04T09:09:35.867Z,56.10
2018-12-04T09:12:01.941Z,56.47
2018-12-04T09:14:27.937Z,56.17
2018-12-04T09:16:53.987Z,56.05
2018-12-04T09:19:19.989Z,56.31
2018-12-04T09:21:46.125Z,55.85
2018-12-04T09:24:12.269Z,56.58
2018-12-04T09:26:38.400Z,55.31
2018-12-04T09:29:04.609Z,55.19
2018-12-04T09:31:30.775Z,55.92
2018-12-04T09:33:56.778Z,55.92
2018-12-04T09:36:22.749Z,56.89
2018-12-04T09:38:48.758Z,55.80
2018-12-04T09:41:14.725Z,55.24
2018-12-04T09:43:40.718Z,54.95
2018-12-04T09:46:06.675Z,54.55
2018-12-04T09:48:33.232Z,55.74
2018-12-04T09:50:59.215Z,55.57
2018-12-04T09:53:25.437Z,54.11
2018-12-04T09:55:51.616Z,54.59
2018-12-04T09:58:17.620Z,55.39
2018-12-04T10:00:44.114Z,54.02
2018-12-04T10:03:10.114Z,54.92
2018-12-04T10:05:36.074Z,54.99
2018-12-04T10:08:02.076Z,54.85
2018-12-04T10:10:28.178Z,55.00
2018-12-04T10:12:54.283Z,53.74
2018-12-04T10:15:20.435Z,53.78
2018-12-04T10:17:46.459Z,53.62
2018-12-04T10:20:12.506Z,52.97
2018-12-04T10:22:38.494Z,53.23
2018-12-04T10:25:04.591Z,53.32
2018-12-04T10:27:30.564Z,54.12
2018-12-04T10:29:56.604Z,54.18
2018-12-04T10:32:22.563Z,54.52
2018-12-04T10:34:49.991Z,53.17
2018-12-04T10:37:16.008Z,52.87
2018-12-04T10:39:42.044Z,53.52
2018-12-04T10:42:08.013Z,53.17
2018-12-04T10:44:33.978Z,52.95
2018-12-04T10:47:00.018Z,52.77
2018-12-04T10:49:26.032Z,52.19
2018-12-04T10:51:52.084Z,51.64
2018-12-04T10:54:18.049Z,51.77
2018-12-04T10:56:44.062Z,52.29
2018-12-04T10:59:10.051Z,51.73
2018-12-04T11:01:42.167Z,51.61
2018-12-04T11:04:08.153Z,51.00
2018-12-04T11:06:34.131Z,52.05
2018-12-04T11:09:00.126Z,52.11
2018-12-04T11:11:26.111Z,51.26
2018-12-04T11:13:59.300Z,50.91
2018-12-04T11:16:25.265Z,50.48
2018-12-04T11:18:51.306Z,50.94
2018-12-04T11:21:17.369Z,50.59
2018-12-04T11:23:43.335Z,50.74
2018-12-04T11:26:09.341Z,50.65
2018-12-04T11:28:35.310Z,50.82
2018-12-04T11:31:01.306Z,50.01
2018-12-04T11:33:27.269Z,49.47
2018-12-04T11:35:53.343Z,49.07
2018-12-04T11:38:19.383Z,49.12
2018-12-04T11:40:45.353Z,48.65
2018-12-04T11:43:11.347Z,48.13
2018-12-04T11:45:37.354Z,48.03
2018-12-04T11:48:03.319Z,49.19
2018-12-04T11:50:29.341Z,48.43
2018-12-04T11:52:55.332Z,47.55
2018-12-04T11:55:21.304Z,47.49
2018-12-04T11:57:47.305Z,47.61
2018-12-04T12:00:15.465Z,48.50
2018-12-04T12:02:41.462Z,47.45
2018-12-04T12:05:07.412Z,47.96
2018-12-04T12:07:33.415Z,47.49
2018-12-04T12:09:59.379Z,47.01
2018-12-04T12:12:26.317Z,48.13
2018-12-04T12:14:52.376Z,48.21
2018-12-04T12:17:18.511Z,47.89
2018-12-04T12:19:44.479Z,48.72
2018-12-04T12:22:13.861Z,48.27
2018-12-04T12:24:39.911Z,47.50
2018-12-04T12:27:05.930Z,48.24
2018-12-04T12:29:31.890Z,47.59
2018-12-04T12:31:57.889Z,48.17
2018-12-04T12:34:23.978Z,47.79
2018-12-04T12:36:50.034Z,48.34
2018-12-04T12:39:16.026Z,47.33
2018-12-04T12:41:42.096Z,46.53
2018-12-04T12:44:08.077Z,47.13
2018-12-04T12:46:34.154Z,47.23
2018-12-04T12:49:00.107Z,48.05
2018-12-04T12:51:26.128Z,47.42
2018-12-04T12:53:52.158Z,48.00
2018-12-04T12:56:18.216Z,47.35
2018-12-04T12:58:44.281Z,47.65
2018-12-04T13:01:10.354Z,46.90
2018-12-04T13:03:36.446Z,45.92
2018-12-04T13:06:02.456Z,46.68
2018-12-04T13:08:28.465Z,46.33
2018-12-04T13:10:54.617Z,46.33
2018-12-04T13:13:20.717Z,47.08
2018-12-04T13:15:46.724Z,46.58
2018-12-04T13:18:12.803Z,46.83
2018-12-04T13:20:38.814Z,45.42
2018-12-04T13:23:04.819Z,46.06
2018-12-04T13:25:30.943Z,45.65
2018-12-04T13:27:56.907Z,46.38
2018-12-04T13:30:22.917Z,46.22
2018-12-04T13:32:49.009Z,45.76
2018-12-04T13:35:14.993Z,45.81
2018-12-04T13:37:40.965Z,45.17
2018-12-04T13:40:08.809Z,44.62
2018-12-04T13:42:35.199Z,45.08
2018-12-04T13:45:01.215Z,45.37
2018-12-04T13:47:27.190Z,45.58
2018-12-04T13:49:53.163Z,46.09
2018-12-04T13:52:19.183Z,46.59
2018-12-04T13:54:45.176Z,46.72
2018-12-04T13:57:11.284Z,45.79
2018-12-04T13:59:37.394Z,47.13
2018-12-04T14:02:03.513Z,47.10
2018-12-04T14:04:29.601Z,47.93
2018-12-04T14:06:55.604Z,47.30
2018-12-04T14:09:25.652Z,45.83
2018-12-04T14:11:49.590Z,45.64
2018-12-04T14:14:15.571Z,46.26
2018-12-04T14:16:41.699Z,46.91
2018-12-04T14:19:07.680Z,47.39
2018-12-04T14:21:33.789Z,46.46
2018-12-04T14:23:59.796Z,47.06
2018-12-04T14:26:26.087Z,48.30
2018-12-04T14:28:52.067Z,48.03
2018-12-04T14:31:18.104Z,46.68
2018-12-04T14:33:44.172Z,47.08
2018-12-04T14:36:10.297Z,47.94
2018-12-04T14:38:36.295Z,47.38
2018-12-04T14:41:02.310Z,46.95
2018-12-04T14:43:28.269Z,46.45
2018-12-04T14:45:54.272Z,48.44
2018-12-04T14:48:20.392Z,47.29
2018-12-04T14:50:46.377Z,47.16
2018-12-04T14:53:12.414Z,47.84
2018-12-04T14:55:38.396Z,47.14
2018-12-04T14:58:04.472Z,47.24
2018-12-04T15:00:30.443Z,46.66
2018-12-04T15:02:56.721Z,48.08
2018-12-04T15:05:22.883Z,48.36
2018-12-04T15:07:48.917Z,47.60
2018-12-04T15:10:14.881Z,47.59
2018-12-04T15:12:41.000Z,48.19
2018-12-04T15:15:07.099Z,47.51
2018-12-04T15:17:33.100Z,48.40
2018-12-04T15:19:59.166Z,48.25
2018-12-04T15:22:25.242Z,48.01
2018-12-04T15:24:51.251Z,48.54
2018-12-04T15:27:17.220Z,47.93
2018-12-04T15:29:43.269Z,48.76
2018-12-04T15:32:09.294Z,48.42
2018-12-04T15:34:35.400Z,49.13
2018-12-04T15:37:01.501Z,48.39
2018-12-04T15:39:27.762Z,48.42
2018-12-04T15:41:53.891Z,49.12
2018-12-04T15:44:19.958Z,48.05
2018-12-04T15:46:46.101Z,48.23
2018-12-04T15:49:12.192Z,48.02
2018-12-04T15:51:38.222Z,48.05
2018-12-04T15:54:04.324Z,47.62
2018-12-04T15:56:32.516Z,48.11
2018-12-04T15:58:58.624Z,49.05
2018-12-04T16:01:24.614Z,48.82
2018-12-04T16:03:50.615Z,47.95
2018-12-04T16:06:16.609Z,48.58
2018-12-04T16:08:42.637Z,48.66
2018-12-04T16:11:08.812Z,48.85
2018-12-04T16:13:34.873Z,48.19
2018-12-04T16:16:00.901Z,48.99
2018-12-04T16:18:26.904Z,48.73
2018-12-04T16:20:52.896Z,48.93
2018-12-04T16:23:18.919Z,49.14
2018-12-04T16:25:44.933Z,48.21
2018-12-04T16:28:10.895Z,48.90
2018-12-04T16:30:36.929Z,49.40
2018-12-04T16:33:02.907Z,48.41
2018-12-04T16:35:28.915Z,48.74
2018-12-04T16:37:54.884Z,48.93
2018-12-04T16:40:20.933Z,49.52
2018-12-04T16:42:46.897Z,49.23
2018-12-04T16:45:12.913Z,48.79
2018-12-04T16:47:38.909Z,49.30
2018-12-04T16:50:04.992Z,49.21
2018-12-04T16:52:31.009Z,49.31
2018-12-04T16:54:57.089Z,49.90
2018-12-04T16:57:23.179Z,49.26
2018-12-04T16:59:49.263Z,49.71
2018-12-04T17:02:15.251Z,49.68
2018-12-04T17:04:41.321Z,50.14
2018-12-04T17:07:07.335Z,49.91
2018-12-04T17:09:33.314Z,50.55
2018-12-04T17:11:59.377Z,49.97
2018-12-04T17:14:25.352Z,50.32
2018-12-04T17:16:51.356Z,50.58
2018-12-04T17:19:17.472Z,50.46
2018-12-04T17:21:43.472Z,50.49
2018-12-04T17:24:09.574Z,50.54
2018-12-04T17:26:35.618Z,50.24
2018-12-04T17:29:01.581Z,50.46
2018-12-04T17:31:27.599Z,50.96
2018-12-04T17:33:55.048Z,51.93
2018-12-04T17:36:21.369Z,52.41
2018-12-04T17:38:47.380Z,52.57
2018-12-04T17:41:13.427Z,51.96
2018-12-04T17:43:39.433Z,52.08
2018-12-04T17:46:05.395Z,51.18
2018-12-04T17:48:31.424Z,51.97
2018-12-04T17:50:57.772Z,51.81
2018-12-04T17:53:23.783Z,51.78
2018-12-04T17:55:49.809Z,52.35
2018-12-04T17:58:15.769Z,52.93
2018-12-04T18:00:41.828Z,52.68
2018-12-04T18:03:07.862Z,53.58
2018-12-04T18:05:33.832Z,52.86
2018-12-04T18:07:59.839Z,53.14
2018-12-04T18:10:25.884Z,53.07
2018-12-04T18:12:51.933Z,52.94
2018-12-04T18:15:17.942Z,52.73
2018-12-04T18:17:43.963Z,53.29
2018-12-04T18:20:09.926Z,53.56
2018-12-04T18:22:35.970Z,53.77
2018-12-04T18:25:02.072Z,54.21
2018-12-04T18:27:28.079Z,54.59
2018-12-04T18:29:54.043Z,54.82
2018-12-04T18:32:20.096Z,54.50
2018-12-04T18:34:46.197Z,54.91
2018-12-04T18:37:12.245Z,55.39
2018-12-04T18:39:38.388Z,55.30
2018-12-04T18:42:04.399Z,54.85
2018-12-04T18:44:30.393Z,55.98
2018-12-04T18:46:56.424Z,56.31
2018-12-04T18:49:23.066Z,55.25
2018-12-04T18:51:49.066Z,55.29
2018-12-04T18:54:15.112Z,54.73
2018-12-04T18:56:41.087Z,54.40
2018-12-04T18:59:07.295Z,53.57
2018-12-04T19:01:33.415Z,54.66
2018-12-04T19:03:59.463Z,53.70
2018-12-04T19:06:25.459Z,53.91
2018-12-04T19:08:51.560Z,54.61
2018-12-04T19:11:17.526Z,54.86
2018-12-04T19:13:43.582Z,53.95
2018-12-04T19:16:09.605Z,53.64
2018-12-04T19:18:35.687Z,53.92
2018-12-04T19:21:01.654Z,53.73
2018-12-04T19:23:27.654Z,54.14
2018-12-04T19:25:53.681Z,54.65
2018-12-04T19:28:19.682Z,54.04
2018-12-04T19:30:46.214Z,53.90
2018-12-04T19:33:12.238Z,54.52
2018-12-04T19:35:38.216Z,54.32
2018-12-04T19:38:04.227Z,54.38
2018-12-04T19:40:30.196Z,54.13
2018-12-04T19:42:56.228Z,53.27
2018-12-04T19:45:22.363Z,52.92
2018-12-04T19:47:48.388Z,53.20
2018-12-04T19:50:14.408Z,54.07
2018-12-04T19:52:40.420Z,55.27
2018-12-04T19:55:06.433Z,56.41
2018-12-04T19:57:32.516Z,55.79
2018-12-04T19:59:58.500Z,56.31
2018-12-04T20:02:24.528Z,56.69
2018-12-04T20:04:50.516Z,56.01
2018-12-04T20:07:16.721Z,55.71
2018-12-04T20:09:42.697Z,55.62
2018-12-04T20:12:08.922Z,55.77
2018-12-04T20:14:34.984Z,54.23
2018-12-04T20:17:00.951Z,55.49
2018-12-04T20:19:26.970Z,55.50
2018-12-04T20:21:52.963Z,55.47
2018-12-04T20:24:18.958Z,55.75
2018-12-04T20:26:45.227Z,56.16
2018-12-04T20:29:11.339Z,55.69
2018-12-04T20:31:37.330Z,55.05
2018-12-04T20:34:03.343Z,54.37
2018-12-04T20:36:29.330Z,54.94
2018-12-04T20:38:55.502Z,55.04
2018-12-04T20:41:21.590Z,54.90
2018-12-04T20:43:47.641Z,54.02
2018-12-04T20:46:13.610Z,55.09
2018-12-04T20:48:39.622Z,55.27
2018-12-04T20:51:05.739Z,54.78
2018-12-04T20:53:31.713Z,54.64
2018-12-04T20:55:57.786Z,55.77
2018-12-04T20:58:23.894Z,55.22
2018-12-04T21:00:52.287Z,55.70
2018-12-04T21:03:18.278Z,54.85
2018-12-04T21:05:44.300Z,55.16
2018-12-04T21:08:10.607Z,54.17
2018-12-04T21:10:36.627Z,55.39
2018-12-04T21:13:03.386Z,54.38
2018-12-04T21:15:29.409Z,54.54
2018-12-04T21:17:55.486Z,54.37
2018-12-04T21:20:21.470Z,54.59
2018-12-04T21:22:47.489Z,55.05
2018-12-04T21:25:13.474Z,54.52
2018-12-04T21:27:45.727Z,53.98
2018-12-04T21:30:17.807Z,54.50
2018-12-04T21:32:49.964Z,54.58
2018-12-04T21:35:22.097Z,55.07
2018-12-04T21:37:54.294Z,55.27
2018-12-04T21:43:30.279Z,55.47
2018-12-04T21:46:02.389Z,55.56
2018-12-04T21:48:28.706Z,55.35
2018-12-04T21:50:54.859Z,55.01
2018-12-04T21:53:20.854Z,55.36
2018-12-04T21:55:46.940Z,54.94
2018-12-04T21:58:12.923Z,54.38
2018-12-04T22:00:39.008Z,54.60
2018-12-04T22:03:05.021Z,54.90
2018-12-04T22:05:31.013Z,54.59
2018-12-04T22:07:56.993Z,54.55
2018-12-04T22:10:23.039Z,54.39
2018-12-04T22:12:49.129Z,54.55
2018-12-04T22:15:15.127Z,55.72
2018-12-04T22:17:42.420Z,55.17
2018-12-04T22:20:08.426Z,55.07
2018-12-04T22:22:34.492Z,54.28
2018-12-04T22:25:00.611Z,55.04
2018-12-04T22:27:26.640Z,55.34
2018-12-04T22:29:52.651Z,55.81
2018-12-04T22:32:18.634Z,55.63
2018-12-04T22:34:44.662Z,56.13
2018-12-04T22:37:10.642Z,57.27
2018-12-04T22:39:36.674Z,55.66
2018-12-04T22:42:02.690Z,55.36
2018-12-04T22:44:28.677Z,55.12
2018-12-04T22:46:54.689Z,56.34
2018-12-04T22:49:20.675Z,56.68
2018-12-04T22:51:46.746Z,55.72
2018-12-04T22:54:12.740Z,56.01
2018-12-04T22:56:38.798Z,55.94
2018-12-04T22:59:04.813Z,56.53
2018-12-04T23:01:36.981Z,55.88
2018-12-04T23:04:04.049Z,56.71
2018-12-04T23:06:30.164Z,56.48
2018-12-04T23:08:56.213Z,56.18
2018-12-04T23:11:22.241Z,56.98
2018-12-04T23:13:48.797Z,56.33
2018-12-04T23:16:14.999Z,55.18
2018-12-04T23:18:40.964Z,55.87
2018-12-04T23:21:07.011Z,56.76
2018-12-04T23:23:32.998Z,55.61
2018-12-04T23:25:58.981Z,56.44
2018-12-04T23:28:25.027Z,55.65
2018-12-04T23:30:51.052Z,55.33
2018-12-04T23:33:17.076Z,55.29
2018-12-04T23:35:43.036Z,55.26
2018-12-04T23:38:09.062Z,54.81
2018-12-04T23:40:35.164Z,55.48
2018-12-04T23:43:01.184Z,55.79
2018-12-04T23:45:27.178Z,56.21
2018-12-04T23:47:53.252Z,55.90
2018-12-04T23:50:19.318Z,56.50
2018-12-04T23:52:45.344Z,55.57
2018-12-04T23:55:11.302Z,55.23
2018-12-04T23:57:37.407Z,55.74
